Airfield :
LOGIN :

Register | Disclaimer

   EN    FR    IT 

 










Legend :    VFR   Marginal VFR   IFR   Intensive IFR   Very Intensive IFR
Visi :
Ceiling :
>= 8 km
>= 3000ft
5 to 8 km
1000 to 3000 ft
1500m to 5 km
500 to 1000 ft
800 to 1500m
200 to 500 ft
< 800m
< 200 ft
Symbols :   Thunderstorms  Fog  Heavy snow  Heavy precipitations  Wind > 20 kt
SIGMETs :     Misc.  Thunderstorms  Icing  Turbulence  Mountain Waves  Volcanic Ashes







- Airport Elevation : 82 ft
- IATA code : ALG


DAAG - Alger Houari Boumedienne

CURRENT METAR :
  • 182300Z 06002KT 9999 FEW016 09/08 Q1021

EXPIRED METARs :
  • 182230Z 00000KT 9999 FEW016 09/09 Q1021
  • 182200Z 00000KT 9999 FEW016 09/09 Q1021
  • 182130Z 00000KT 9999 FEW026 10/09 Q1021
  • 182100Z 08002KT 9999 FEW026 11/10 Q1021
  • 182030Z 06003KT 9999 FEW026 11/10 Q1021

TAF COR TAF DAAG
Valid from the 18 at 18:00 until the 19 at 18:00 UTC


181700Z 1818/1918 04010KT 9999 FEW020
BECMG 1819/1821 VRB02KT
BECMG 1908/1911 04010KT
No reported NOTAMs for that airfield.



MET'MAP, your aeronautical weather chart ! - Copyright ORBIFLY December 2007 - Disclaimer

ORBIFLY MET'MAP TEAM :

Programming & Development : Alexandra Zaïnal
Concept & Development : Baudouin d'Aumeries
Co-Development & Prog : Marc-Olivier Méhu
Technical & hardware support : Manuel Goepfert

Contact : metmap@orbifly.com




SOURCES & CREDITS :

   NOAA